createdAt,value
2022-12-26T00:01:53.879Z,18.49
2022-12-26T00:04:52.253Z,18.98
2022-12-26T00:07:11.259Z,18.40
2022-12-26T00:09:38.625Z,18.93
2022-12-26T00:12:06.313Z,18.59
2022-12-26T00:14:33.023Z,18.29
2022-12-26T00:16:59.825Z,18.55
2022-12-26T00:19:28.520Z,18.71
2022-12-26T00:21:55.695Z,18.34
2022-12-26T00:24:22.428Z,18.77
2022-12-26T00:26:49.779Z,18.87
2022-12-26T00:29:16.940Z,18.94
2022-12-26T00:31:44.566Z,18.72
2022-12-26T00:34:12.020Z,18.97
2022-12-26T00:36:42.540Z,18.61
2022-12-26T00:39:10.335Z,18.61
2022-12-26T00:41:37.623Z,18.37
2022-12-26T00:44:05.142Z,18.59
2022-12-26T00:46:32.701Z,18.43
2022-12-26T00:49:00.079Z,18.45
2022-12-26T00:51:27.329Z,16.63
2022-12-26T00:53:56.200Z,15.33
2022-12-26T00:56:23.523Z,13.71
2022-12-26T00:58:50.676Z,12.90
2022-12-26T01:01:20.439Z,12.32
2022-12-26T01:03:48.579Z,9.98
2022-12-26T01:06:16.449Z,10.01
2022-12-26T01:08:44.341Z,10.93
2022-12-26T01:11:15.840Z,10.67
2022-12-26T01:13:43.632Z,11.03
2022-12-26T01:16:11.006Z,11.10
2022-12-26T01:18:38.357Z,10.46
2022-12-26T01:21:07.973Z,11.35
2022-12-26T01:23:35.727Z,11.10
2022-12-26T01:26:18.945Z,10.16
2022-12-26T01:28:49.179Z,10.05
2022-12-26T01:31:16.786Z,10.65
2022-12-26T01:33:44.201Z,10.67
2022-12-26T01:36:11.684Z,10.03
2022-12-26T01:38:39.111Z,10.73
2022-12-26T01:41:07.358Z,10.46
2022-12-26T01:43:53.300Z,10.59
2022-12-26T01:46:24.775Z,10.95
2022-12-26T01:48:52.915Z,10.82
2022-12-26T01:51:24.631Z,10.89
2022-12-26T01:53:55.696Z,11.11
2022-12-26T01:56:45.771Z,12.36
2022-12-26T01:59:18.612Z,12.23
2022-12-26T02:01:49.201Z,11.76
2022-12-26T02:04:20.867Z,12.60
2022-12-26T02:06:48.311Z,13.24
2022-12-26T02:09:16.398Z,12.36
2022-12-26T02:11:49.166Z,12.84
2022-12-26T02:14:38.574Z,11.27
2022-12-26T02:17:07.702Z,11.57
2022-12-26T02:19:44.361Z,12.64
2022-12-26T02:22:42.492Z,12.97
2022-12-26T02:25:33.449Z,13.04
2022-12-26T02:28:31.910Z,12.67
2022-12-26T02:31:04.709Z,12.86
2022-12-26T02:33:43.505Z,12.58
2022-12-26T02:36:25.223Z,12.61
2022-12-26T02:39:44.298Z,12.49
2022-12-26T02:42:09.596Z,12.05
2022-12-26T02:44:44.530Z,12.73
2022-12-26T02:47:24.903Z,13.01
2022-12-26T02:50:04.903Z,13.12
2022-12-26T02:52:45.365Z,12.42
2022-12-26T02:55:17.909Z,12.53
2022-12-26T02:57:51.317Z,12.47
2022-12-26T03:00:21.077Z,12.37
2022-12-26T03:02:53.729Z,12.70
2022-12-26T03:05:28.263Z,12.98
2022-12-26T03:07:56.859Z,13.25
2022-12-26T03:10:28.790Z,12.71
2022-12-26T03:13:00.149Z,12.77
2022-12-26T03:15:31.825Z,12.86
2022-12-26T03:18:07.427Z,13.20
2022-12-26T03:20:36.519Z,12.80
2022-12-26T03:23:08.186Z,13.14
2022-12-26T03:25:41.388Z,12.69
2022-12-26T03:28:08.703Z,12.87
2022-12-26T03:30:35.952Z,12.77
2022-12-26T03:33:05.627Z,13.10
2022-12-26T03:35:34.398Z,13.28
2022-12-26T03:38:08.140Z,12.99
2022-12-26T03:40:52.130Z,13.33
2022-12-26T03:43:33.894Z,12.33
2022-12-26T03:46:13.917Z,13.10
2022-12-26T03:48:51.129Z,13.23
2022-12-26T03:51:26.731Z,13.29
2022-12-26T03:54:03.641Z,12.48
2022-12-26T03:56:35.765Z,13.24
2022-12-26T03:59:08.846Z,13.35
2022-12-26T04:01:38.790Z,12.67
2022-12-26T04:04:12.420Z,13.05
2022-12-26T04:06:45.981Z,12.90
2022-12-26T04:09:20.185Z,13.11
2022-12-26T04:11:48.266Z,13.00
2022-12-26T04:14:28.964Z,12.91
2022-12-26T04:17:01.050Z,12.89
2022-12-26T04:19:50.542Z,12.98
2022-12-26T04:22:25.567Z,12.95
2022-12-26T04:24:58.597Z,12.75
2022-12-26T04:27:29.553Z,12.80
2022-12-26T04:29:56.500Z,12.75
2022-12-26T04:32:34.741Z,12.62
2022-12-26T04:35:09.952Z,12.71
2022-12-26T04:37:44.316Z,12.52
2022-12-26T04:40:17.992Z,12.45
2022-12-26T04:42:47.223Z,12.52
2022-12-26T04:45:15.307Z,12.41
2022-12-26T04:47:42.620Z,12.41
2022-12-26T04:50:11.984Z,12.45
2022-12-26T04:52:40.380Z,12.53
2022-12-26T04:55:08.417Z,12.38
2022-12-26T04:57:35.811Z,12.21
2022-12-26T05:00:03.608Z,12.10
2022-12-26T05:02:31.052Z,11.89
2022-12-26T05:04:58.513Z,11.76
2022-12-26T05:07:30.901Z,11.87
2022-12-26T05:09:58.318Z,11.90
2022-12-26T05:12:25.883Z,11.91
2022-12-26T05:14:53.688Z,11.91
2022-12-26T05:17:21.044Z,11.79
2022-12-26T05:19:49.411Z,11.79
2022-12-26T05:22:16.597Z,12.01
2022-12-26T05:24:46.313Z,12.12
2022-12-26T05:27:16.453Z,12.52
2022-12-26T05:29:43.919Z,12.49
2022-12-26T05:32:11.235Z,12.43
2022-12-26T05:34:38.633Z,12.78
2022-12-26T05:37:06.059Z,12.64
2022-12-26T05:39:33.348Z,12.79
2022-12-26T05:42:02.279Z,12.86
2022-12-26T05:44:29.979Z,12.69
2022-12-26T05:46:57.620Z,12.80
2022-12-26T05:49:25.072Z,12.65
2022-12-26T05:51:52.532Z,12.53
2022-12-26T05:54:19.906Z,12.58
2022-12-26T05:56:49.396Z,12.36
2022-12-26T05:59:18.512Z,12.17
2022-12-26T06:01:45.851Z,12.13
2022-12-26T06:04:13.288Z,12.04
2022-12-26T06:06:40.427Z,11.98
2022-12-26T06:09:07.731Z,11.99
2022-12-26T06:11:35.298Z,11.94
2022-12-26T06:14:02.555Z,12.11
2022-12-26T06:16:31.742Z,12.48
2022-12-26T06:18:59.086Z,12.56
2022-12-26T06:21:26.420Z,12.52
2022-12-26T06:23:53.754Z,12.78
2022-12-26T06:26:21.327Z,12.94
2022-12-26T06:28:48.613Z,13.11
2022-12-26T06:31:18.231Z,13.13
2022-12-26T06:33:47.675Z,13.23
2022-12-26T06:36:16.981Z,13.29
2022-12-26T06:38:44.732Z,13.45
2022-12-26T06:41:14.450Z,13.70
2022-12-26T06:43:41.834Z,13.69
2022-12-26T06:46:12.812Z,13.49
2022-12-26T06:48:40.383Z,13.43
2022-12-26T06:51:11.817Z,13.42
2022-12-26T06:53:39.858Z,13.40
2022-12-26T06:56:08.615Z,13.26
2022-12-26T06:58:36.094Z,13.56
2022-12-26T07:01:07.901Z,13.73
2022-12-26T07:03:35.359Z,13.61
2022-12-26T07:06:04.523Z,13.75
2022-12-26T07:08:33.737Z,14.08
2022-12-26T07:11:01.027Z,14.20
2022-12-26T07:13:28.371Z,13.97
2022-12-26T07:15:58.843Z,14.25
2022-12-26T07:18:26.214Z,14.47
2022-12-26T07:20:53.560Z,14.24
2022-12-26T07:23:21.488Z,14.36
2022-12-26T07:25:50.113Z,14.26
2022-12-26T07:28:17.297Z,14.18
2022-12-26T07:30:47.788Z,13.92
2022-12-26T07:33:15.295Z,13.73
2022-12-26T07:35:43.138Z,13.71
2022-12-26T07:38:11.607Z,13.28
2022-12-26T07:40:39.479Z,12.87
2022-12-26T07:43:08.233Z,12.65
2022-12-26T07:45:39.215Z,12.49
2022-12-26T07:48:10.594Z,12.24
2022-12-26T07:50:38.043Z,12.14
2022-12-26T07:53:05.584Z,12.13
2022-12-26T07:55:32.319Z,12.22
2022-12-26T07:58:00.110Z,12.34
2022-12-26T08:00:28.287Z,12.56
2022-12-26T08:02:59.665Z,12.61
2022-12-26T08:05:29.722Z,12.77
2022-12-26T08:07:57.046Z,12.97
2022-12-26T08:10:24.360Z,13.12
2022-12-26T08:12:51.722Z,13.32
2022-12-26T08:15:19.052Z,13.41
2022-12-26T08:17:47.711Z,13.28
2022-12-26T08:20:15.453Z,12.98
2022-12-26T08:22:42.649Z,12.96
2022-12-26T08:25:10.587Z,13.07
2022-12-26T08:27:39.210Z,13.03
2022-12-26T08:30:06.945Z,12.97
2022-12-26T08:32:33.860Z,12.98
2022-12-26T08:35:02.654Z,12.72
2022-12-26T08:37:29.980Z,12.69
2022-12-26T08:39:57.160Z,12.82
2022-12-26T08:42:24.605Z,12.86
2022-12-26T08:44:51.778Z,12.89
2022-12-26T08:47:19.048Z,12.92
2022-12-26T08:49:46.692Z,12.96
2022-12-26T08:52:15.454Z,12.99
2022-12-26T08:54:42.790Z,13.07
2022-12-26T08:57:10.113Z,13.23
2022-12-26T08:59:37.637Z,13.41
2022-12-26T09:02:06.280Z,13.32
2022-12-26T09:04:34.203Z,13.50
2022-12-26T09:07:01.314Z,13.41
2022-12-26T09:09:30.090Z,13.49
2022-12-26T09:11:58.067Z,13.67
2022-12-26T09:14:24.818Z,14.09
2022-12-26T09:16:51.655Z,14.99
2022-12-26T09:19:20.633Z,15.70
2022-12-26T09:21:49.084Z,15.98
2022-12-26T09:24:18.389Z,16.25
2022-12-26T09:26:47.335Z,16.19
2022-12-26T09:29:14.748Z,16.54
2022-12-26T09:31:42.642Z,16.98
2022-12-26T09:34:10.149Z,17.45
2022-12-26T09:36:38.896Z,17.80
2022-12-26T09:39:07.581Z,18.35
2022-12-26T09:44:37.371Z,18.70
2022-12-26T09:47:15.610Z,18.90
2022-12-26T09:49:50.939Z,18.88
2022-12-26T09:52:23.047Z,19.14
2022-12-26T09:54:53.596Z,18.90
2022-12-26T09:57:30.107Z,19.18
2022-12-26T10:00:01.385Z,19.30
2022-12-26T10:02:28.942Z,19.03
2022-12-26T10:04:56.157Z,19.11
2022-12-26T10:07:29.640Z,18.63
2022-12-26T10:10:08.795Z,17.83
2022-12-26T10:12:43.072Z,17.23
2022-12-26T10:15:41.414Z,16.39
2022-12-26T10:18:20.355Z,16.86
2022-12-26T10:21:03.525Z,16.69
2022-12-26T10:23:33.261Z,16.90
2022-12-26T10:26:08.043Z,16.98
2022-12-26T10:28:39.725Z,16.96
2022-12-26T10:31:11.822Z,16.98
2022-12-26T10:33:45.691Z,16.78
2022-12-26T10:36:29.867Z,16.70
2022-12-26T10:38:59.805Z,16.96
2022-12-26T10:41:31.664Z,17.15
2022-12-26T10:44:00.916Z,17.08
2022-12-26T10:46:53.904Z,17.64
2022-12-26T10:49:24.707Z,17.80
2022-12-26T10:51:55.672Z,16.79
2022-12-26T10:54:22.943Z,17.11
2022-12-26T10:56:51.859Z,16.67
2022-12-26T10:59:22.792Z,17.23
2022-12-26T11:01:51.390Z,17.57
2022-12-26T11:04:44.477Z,16.95
2022-12-26T11:07:12.089Z,17.59
2022-12-26T11:09:40.913Z,17.90
2022-12-26T11:12:20.670Z,17.87
2022-12-26T11:14:50.449Z,17.74
2022-12-26T11:17:27.264Z,17.31
2022-12-26T11:20:12.608Z,17.34
2022-12-26T11:22:40.058Z,17.75
2022-12-26T11:25:18.197Z,18.20
2022-12-26T11:27:47.790Z,18.40
2022-12-26T11:30:31.391Z,18.44
2022-12-26T11:33:23.104Z,18.59
2022-12-26T11:35:54.237Z,18.05
2022-12-26T11:38:23.003Z,18.32
2022-12-26T11:40:50.459Z,18.47
2022-12-26T11:43:20.700Z,18.39
2022-12-26T11:45:50.721Z,18.20
2022-12-26T11:48:25.729Z,18.01
2022-12-26T11:50:53.713Z,17.72
2022-12-26T11:53:23.665Z,17.50
2022-12-26T11:56:01.052Z,17.80
2022-12-26T11:58:29.614Z,18.40
2022-12-26T12:01:22.556Z,18.19
2022-12-26T12:03:50.532Z,17.92
2022-12-26T12:06:38.262Z,17.53
2022-12-26T12:09:20.381Z,17.40
2022-12-26T12:11:57.938Z,17.11
2022-12-26T12:14:54.750Z,17.38
2022-12-26T12:17:29.377Z,17.54
2022-12-26T12:20:18.580Z,17.38
2022-12-26T12:23:20.568Z,17.65
2022-12-26T12:26:02.411Z,17.82
2022-12-26T12:28:59.465Z,17.39
2022-12-26T12:31:38.896Z,17.75
2022-12-26T12:34:17.862Z,17.91
2022-12-26T12:36:59.340Z,18.84
2022-12-26T12:39:39.980Z,18.64
2022-12-26T12:42:24.703Z,18.45
2022-12-26T12:45:05.438Z,18.09
2022-12-26T12:47:43.378Z,18.09
2022-12-26T12:50:23.887Z,17.85
2022-12-26T12:52:59.876Z,18.38
2022-12-26T12:55:46.467Z,19.26
2022-12-26T12:58:22.359Z,19.87
2022-12-26T13:00:54.939Z,19.46
2022-12-26T13:03:29.546Z,18.85
2022-12-26T13:06:05.296Z,18.88
2022-12-26T13:08:38.658Z,19.34
2022-12-26T13:11:11.344Z,19.67
2022-12-26T13:13:48.523Z,19.52
2022-12-26T13:16:22.916Z,19.65
2022-12-26T13:18:53.990Z,19.51
2022-12-26T13:21:23.816Z,19.68
2022-12-26T13:23:56.973Z,19.74
2022-12-26T13:26:28.705Z,19.41
2022-12-26T13:29:02.837Z,18.93
2022-12-26T13:31:33.233Z,19.04
2022-12-26T13:34:01.862Z,18.68
2022-12-26T13:36:44.421Z,18.90
2022-12-26T13:39:26.434Z,19.02
2022-12-26T13:41:58.662Z,18.88
2022-12-26T13:44:27.780Z,18.88
2022-12-26T13:46:57.910Z,18.90
2022-12-26T13:49:32.615Z,18.63
2022-12-26T13:52:32.554Z,18.21
2022-12-26T13:55:28.579Z,18.14
2022-12-26T13:58:19.983Z,18.33
2022-12-26T14:00:51.474Z,18.45
2022-12-26T14:03:44.475Z,18.28
2022-12-26T14:06:49.413Z,18.54
2022-12-26T14:09:31.983Z,18.15
2022-12-26T14:12:13.610Z,18.46
2022-12-26T14:14:56.797Z,17.95
2022-12-26T14:17:39.538Z,17.52
2022-12-26T14:20:21.260Z,16.95
2022-12-26T14:23:01.974Z,17.18
2022-12-26T14:25:50.737Z,16.64
2022-12-26T14:28:26.455Z,17.03
2022-12-26T14:31:05.317Z,17.06
2022-12-26T14:33:39.150Z,16.83
2022-12-26T14:36:20.856Z,16.58
2022-12-26T14:38:57.089Z,17.22
2022-12-26T14:41:26.452Z,16.35
2022-12-26T14:43:57.957Z,17.01
2022-12-26T14:46:58.062Z,16.36
2022-12-26T14:49:37.996Z,15.87
2022-12-26T14:52:37.000Z,16.19
2022-12-26T14:55:44.933Z,16.26
2022-12-26T14:58:39.304Z,16.64
2022-12-26T15:01:44.096Z,16.29
2022-12-26T15:04:35.074Z,16.10
2022-12-26T15:07:36.090Z,17.00
2022-12-26T15:10:32.129Z,15.93
2022-12-26T15:13:39.053Z,15.84
2022-12-26T15:16:23.029Z,16.89
2022-12-26T15:19:26.150Z,17.20
2022-12-26T15:22:17.258Z,15.54
2022-12-26T15:25:19.983Z,16.53
2022-12-26T15:28:22.867Z,16.83
2022-12-26T15:31:13.519Z,16.76
2022-12-26T15:33:50.333Z,16.22
2022-12-26T15:36:27.436Z,16.35
2022-12-26T15:38:59.839Z,16.31
2022-12-26T15:41:37.948Z,16.30
2022-12-26T15:44:19.768Z,15.82
2022-12-26T15:46:58.292Z,16.66
2022-12-26T15:49:43.284Z,16.78
2022-12-26T15:52:20.157Z,16.77
2022-12-26T15:55:23.169Z,17.04
2022-12-26T15:57:58.679Z,16.67
2022-12-26T16:00:29.049Z,16.32
2022-12-26T16:03:19.796Z,15.69
2022-12-26T16:06:05.574Z,16.08
2022-12-26T16:08:58.624Z,15.20
2022-12-26T16:11:31.009Z,14.98
2022-12-26T16:14:01.949Z,15.01
2022-12-26T16:16:33.874Z,15.51
2022-12-26T16:19:16.448Z,15.65
2022-12-26T16:21:48.602Z,15.24
2022-12-26T16:24:22.396Z,15.17
2022-12-26T16:26:50.408Z,15.88
2022-12-26T16:29:20.869Z,15.68
2022-12-26T16:31:48.488Z,15.65
2022-12-26T16:34:19.677Z,15.67
2022-12-26T16:36:50.113Z,15.46
2022-12-26T16:39:22.614Z,15.20
2022-12-26T16:42:27.545Z,15.52
2022-12-26T16:45:02.359Z,15.50
2022-12-26T16:47:32.110Z,15.62
2022-12-26T16:50:00.038Z,15.62
2022-12-26T16:52:43.954Z,15.47
2022-12-26T16:55:35.249Z,15.69
2022-12-26T16:58:11.593Z,15.54
2022-12-26T17:00:40.102Z,15.58
2022-12-26T17:03:15.621Z,15.56
2022-12-26T17:05:47.262Z,15.50
2022-12-26T17:08:16.490Z,15.58
2022-12-26T17:10:48.600Z,15.54
2022-12-26T17:13:19.769Z,15.56
2022-12-26T17:15:55.589Z,15.53
2022-12-26T17:18:43.118Z,15.72
2022-12-26T17:21:22.951Z,15.64
2022-12-26T17:24:06.156Z,15.86
2022-12-26T17:26:34.159Z,15.76
2022-12-26T17:29:01.568Z,15.52
2022-12-26T17:31:35.131Z,15.46
2022-12-26T17:34:08.391Z,15.41
2022-12-26T17:39:26.975Z,15.36
2022-12-26T17:41:56.925Z,15.13
2022-12-26T17:44:35.360Z,14.85
2022-12-26T17:47:07.233Z,14.93
2022-12-26T17:49:34.575Z,14.56
2022-12-26T17:52:02.268Z,14.58
2022-12-26T17:54:31.299Z,14.57
2022-12-26T17:56:59.355Z,14.42
2022-12-26T17:59:26.694Z,14.72
2022-12-26T18:01:54.492Z,14.42
2022-12-26T18:04:21.796Z,15.00
2022-12-26T18:06:49.068Z,15.03
2022-12-26T18:09:26.323Z,15.40
2022-12-26T18:11:55.462Z,15.32
2022-12-26T18:14:22.238Z,15.24
2022-12-26T18:16:51.609Z,15.07
2022-12-26T18:19:19.875Z,15.12
2022-12-26T18:21:47.475Z,14.97
2022-12-26T18:24:14.946Z,15.08
2022-12-26T18:26:42.011Z,14.98
2022-12-26T18:29:11.838Z,14.88
2022-12-26T18:31:39.563Z,14.89
2022-12-26T18:34:07.214Z,14.93
2022-12-26T18:36:37.636Z,15.00
2022-12-26T18:39:06.105Z,14.96
2022-12-26T18:41:33.432Z,14.85
2022-12-26T18:44:02.200Z,14.58
2022-12-26T18:46:31.192Z,14.60
2022-12-26T18:48:58.561Z,14.24
2022-12-26T18:51:26.516Z,14.33
2022-12-26T18:53:55.067Z,14.51
2022-12-26T18:56:23.587Z,14.53
2022-12-26T18:58:57.559Z,14.49
2022-12-26T19:01:26.929Z,14.47
2022-12-26T19:03:56.542Z,14.70
2022-12-26T19:06:26.296Z,14.48
2022-12-26T19:08:53.748Z,14.66
2022-12-26T19:11:21.139Z,14.85
2022-12-26T19:13:48.669Z,14.71
2022-12-26T19:16:16.032Z,14.41
2022-12-26T19:18:43.431Z,14.44
2022-12-26T19:21:14.167Z,14.18
2022-12-26T19:23:42.174Z,14.11
2022-12-26T19:26:10.744Z,14.10
2022-12-26T19:28:38.317Z,13.97
2022-12-26T19:31:09.699Z,13.87
2022-12-26T19:33:37.444Z,13.70
2022-12-26T19:36:05.924Z,13.70
2022-12-26T19:38:35.193Z,13.73
2022-12-26T19:41:02.920Z,13.75
2022-12-26T19:43:30.996Z,13.83
2022-12-26T19:46:02.022Z,13.90
2022-12-26T19:48:31.215Z,14.08
2022-12-26T19:51:00.887Z,13.94
2022-12-26T19:53:27.768Z,14.08
2022-12-26T19:55:56.878Z,14.20
2022-12-26T19:58:24.985Z,14.25
2022-12-26T20:00:53.161Z,14.17
2022-12-26T20:03:20.985Z,14.21
2022-12-26T20:05:48.386Z,14.23
2022-12-26T20:08:15.942Z,14.34
2022-12-26T20:10:43.347Z,14.53
2022-12-26T20:13:12.023Z,14.30
2022-12-26T20:15:39.316Z,14.15
2022-12-26T20:18:08.846Z,13.94
2022-12-26T20:20:39.509Z,13.76
2022-12-26T20:23:07.264Z,13.60
2022-12-26T20:25:34.860Z,13.46
2022-12-26T20:28:02.306Z,13.64
2022-12-26T20:30:31.598Z,13.59
2022-12-26T20:32:58.879Z,13.61
2022-12-26T20:35:26.443Z,13.56
2022-12-26T20:37:54.006Z,13.71
2022-12-26T20:40:20.770Z,13.73
2022-12-26T20:42:48.230Z,13.63
2022-12-26T20:45:16.355Z,13.36
2022-12-26T20:47:44.607Z,13.31
2022-12-26T20:50:11.492Z,13.38
2022-12-26T20:52:38.953Z,13.30
2022-12-26T20:55:07.004Z,13.28
2022-12-26T20:57:34.459Z,13.40
2022-12-26T21:00:01.975Z,13.41
2022-12-26T21:02:29.657Z,13.40
2022-12-26T21:04:58.489Z,13.51
2022-12-26T21:07:26.025Z,13.43
2022-12-26T21:09:53.753Z,13.48
2022-12-26T21:12:21.309Z,13.71
2022-12-26T21:14:48.819Z,13.64
2022-12-26T21:17:16.101Z,13.78
2022-12-26T21:19:43.513Z,13.71
2022-12-26T21:22:13.381Z,13.67
2022-12-26T21:24:40.742Z,13.81
2022-12-26T21:27:07.485Z,13.81
2022-12-26T21:29:35.623Z,13.70
2022-12-26T21:32:05.015Z,13.52
2022-12-26T21:34:33.492Z,13.57
2022-12-26T21:37:00.803Z,13.79
2022-12-26T21:39:29.848Z,14.06
2022-12-26T21:41:56.643Z,14.09
2022-12-26T21:44:24.958Z,14.07
2022-12-26T21:46:51.684Z,14.15
2022-12-26T21:49:19.093Z,14.25
2022-12-26T21:51:46.141Z,14.27
2022-12-26T21:54:13.428Z,14.36
2022-12-26T21:56:42.101Z,14.48
2022-12-26T21:59:10.046Z,14.57
2022-12-26T22:01:37.403Z,14.61
2022-12-26T22:04:04.632Z,14.58
2022-12-26T22:06:32.159Z,14.65
2022-12-26T22:08:59.843Z,14.61
2022-12-26T22:11:27.089Z,14.67
2022-12-26T22:13:55.919Z,14.56
2022-12-26T22:16:23.220Z,14.53
2022-12-26T22:18:50.492Z,14.58
2022-12-26T22:21:19.807Z,14.64
2022-12-26T22:23:47.906Z,14.60
2022-12-26T22:26:15.719Z,14.67
2022-12-26T22:28:43.959Z,14.46
2022-12-26T22:31:19.051Z,14.39
2022-12-26T22:33:46.526Z,14.24
2022-12-26T22:36:13.860Z,14.42
2022-12-26T22:38:41.195Z,14.20
2022-12-26T22:41:08.640Z,14.09
2022-12-26T22:43:36.357Z,13.91
2022-12-26T22:46:03.812Z,14.33
2022-12-26T22:48:32.938Z,14.12
2022-12-26T22:51:00.119Z,14.31
2022-12-26T22:53:28.863Z,14.42
2022-12-26T22:55:58.566Z,14.09
2022-12-26T22:58:25.910Z,14.63
2022-12-26T23:00:53.523Z,14.77
2022-12-26T23:03:21.553Z,14.85
2022-12-26T23:05:51.239Z,14.61
2022-12-26T23:08:22.704Z,14.37
2022-12-26T23:10:52.428Z,14.27
2022-12-26T23:13:20.535Z,14.24
2022-12-26T23:15:58.073Z,14.01
2022-12-26T23:18:34.368Z,14.04
2022-12-26T23:21:16.036Z,13.84
2022-12-26T23:23:43.735Z,13.87
2022-12-26T23:26:10.980Z,13.79
2022-12-26T23:28:38.581Z,13.64
2022-12-26T23:31:05.939Z,13.70
2022-12-26T23:33:33.410Z,13.63
2022-12-26T23:36:00.851Z,13.69
2022-12-26T23:38:29.609Z,13.67
2022-12-26T23:40:56.843Z,13.94
2022-12-26T23:43:24.314Z,13.99
2022-12-26T23:45:51.921Z,13.93
2022-12-26T23:48:19.406Z,13.96
2022-12-26T23:50:46.612Z,13.72
2022-12-26T23:53:13.999Z,13.71
2022-12-26T23:55:42.763Z,13.67
2022-12-26T23:58:10.482Z,13.53
